sensor_id;sensor_type;location;lat;lon;timestamp;pressure;altitude;pressure_sealevel;temperature;humidity
17525;BME280;40431;52.198;9.902;2023-01-30T00:01:37;100620.19;;;2.35;100.00
17525;BME280;40431;52.198;9.902;2023-01-30T00:04:03;100589.78;;;2.38;100.00
17525;BME280;40431;52.198;9.902;2023-01-30T00:06:30;100582.72;;;2.35;100.00
17525;BME280;40431;52.198;9.902;2023-01-30T00:08:58;100564.19;;;2.29;100.00
17525;BME280;40431;52.198;9.902;2023-01-30T00:11:24;100572.03;;;2.35;100.00
17525;BME280;40431;52.198;9.902;2023-01-30T00:13:52;100534.66;;;2.32;100.00
17525;BME280;40431;52.198;9.902;2023-01-30T00:16:19;100510.44;;;2.37;100.00
17525;BME280;40431;52.198;9.902;2023-01-30T00:18:45;100513.25;;;2.32;100.00
17525;BME280;40431;52.198;9.902;2023-01-30T00:21:13;100506.94;;;2.34;100.00
17525;BME280;40431;52.198;9.902;2023-01-30T00:23:40;100506.19;;;2.29;100.00
17525;BME280;40431;52.198;9.902;2023-01-30T00:26:09;100512.19;;;2.38;100.00
17525;BME280;40431;52.198;9.902;2023-01-30T00:28:36;100532.72;;;2.37;100.00
17525;BME280;40431;52.198;9.902;2023-01-30T00:31:04;100534.50;;;2.38;100.00
17525;BME280;40431;52.198;9.902;2023-01-30T00:33:30;100550.44;;;2.41;100.00
17525;BME280;40431;52.198;9.902;2023-01-30T00:35:57;100568.19;;;2.45;100.00
17525;BME280;40431;52.198;9.902;2023-01-30T00:38:23;100544.25;;;2.41;100.00
17525;BME280;40431;52.198;9.902;2023-01-30T00:40:50;100559.31;;;2.43;100.00
17525;BME280;40431;52.198;9.902;2023-01-30T00:43:19;100560.28;;;2.41;100.00
17525;BME280;40431;52.198;9.902;2023-01-30T00:46:08;100561.81;;;2.49;100.00
17525;BME280;40431;52.198;9.902;2023-01-30T00:48:53;100538.69;;;2.47;100.00
17525;BME280;40431;52.198;9.902;2023-01-30T00:51:19;100534.31;;;2.44;100.00
17525;BME280;40431;52.198;9.902;2023-01-30T00:53:46;100514.41;;;2.55;100.00
17525;BME280;40431;52.198;9.902;2023-01-30T00:56:12;100484.19;;;2.49;100.00
17525;BME280;40431;52.198;9.902;2023-01-30T00:58:40;100470.91;;;2.46;100.00
17525;BME280;40431;52.198;9.902;2023-01-30T01:01:07;100462.69;;;2.53;100.00
17525;BME280;40431;52.198;9.902;2023-01-30T01:03:33;100465.28;;;2.56;100.00
17525;BME280;40431;52.198;9.902;2023-01-30T01:05:59;100464.44;;;2.54;100.00
17525;BME280;40431;52.198;9.902;2023-01-30T01:08:26;100444.00;;;2.51;100.00
17525;BME280;40431;52.198;9.902;2023-01-30T01:10:52;100446.41;;;2.60;100.00
17525;BME280;40431;52.198;9.902;2023-01-30T01:13:18;100424.13;;;2.60;100.00
17525;BME280;40431;52.198;9.902;2023-01-30T01:15:46;100407.03;;;2.64;100.00
17525;BME280;40431;52.198;9.902;2023-01-30T01:18:12;100397.31;;;2.61;100.00
17525;BME280;40431;52.198;9.902;2023-01-30T01:20:39;100398.16;;;2.62;100.00
17525;BME280;40431;52.198;9.902;2023-01-30T01:23:05;100418.59;;;2.66;100.00
17525;BME280;40431;52.198;9.902;2023-01-30T01:25:32;100405.16;;;2.67;100.00
17525;BME280;40431;52.198;9.902;2023-01-30T01:27:58;100410.56;;;2.66;100.00
17525;BME280;40431;52.198;9.902;2023-01-30T01:30:27;100417.75;;;2.64;100.00
17525;BME280;40431;52.198;9.902;2023-01-30T01:32:55;100422.94;;;2.68;100.00
17525;BME280;40431;52.198;9.902;2023-01-30T01:35:21;100419.22;;;2.74;100.00
17525;BME280;40431;52.198;9.902;2023-01-30T01:37:51;100419.31;;;2.71;100.00
17525;BME280;40431;52.198;9.902;2023-01-30T01:40:21;100403.25;;;2.71;100.00
17525;BME280;40431;52.198;9.902;2023-01-30T01:43:13;100399.47;;;2.78;100.00
17525;BME280;40431;52.198;9.902;2023-01-30T01:45:40;100390.59;;;2.76;100.00
17525;BME280;40431;52.198;9.902;2023-01-30T01:48:11;100377.13;;;2.79;100.00
17525;BME280;40431;52.198;9.902;2023-01-30T01:50:43;100358.31;;;2.81;100.00
17525;BME280;40431;52.198;9.902;2023-01-30T01:53:12;100343.97;;;2.83;100.00
17525;BME280;40431;52.198;9.902;2023-01-30T01:55:40;100329.84;;;2.78;100.00
17525;BME280;40431;52.198;9.902;2023-01-30T01:58:11;100302.97;;;2.81;100.00
17525;BME280;40431;52.198;9.902;2023-01-30T02:00:40;100296.75;;;2.81;100.00
17525;BME280;40431;52.198;9.902;2023-01-30T02:03:11;100285.97;;;2.82;100.00
17525;BME280;40431;52.198;9.902;2023-01-30T02:05:41;100292.34;;;2.78;100.00
17525;BME280;40431;52.198;9.902;2023-01-30T02:08:11;100305.81;;;2.77;100.00
17525;BME280;40431;52.198;9.902;2023-01-30T02:10:45;100305.03;;;2.73;100.00
17525;BME280;40431;52.198;9.902;2023-01-30T02:13:13;100294.19;;;2.76;100.00
17525;BME280;40431;52.198;9.902;2023-01-30T02:15:40;100281.84;;;2.72;100.00
17525;BME280;40431;52.198;9.902;2023-01-30T02:18:07;100296.06;;;2.74;100.00
17525;BME280;40431;52.198;9.902;2023-01-30T02:20:48;100283.53;;;2.75;100.00
17525;BME280;40431;52.198;9.902;2023-01-30T02:23:44;100293.16;;;2.80;100.00
17525;BME280;40431;52.198;9.902;2023-01-30T02:26:30;100283.41;;;2.79;100.00
17525;BME280;40431;52.198;9.902;2023-01-30T02:29:25;100287.69;;;2.85;100.00
17525;BME280;40431;52.198;9.902;2023-01-30T02:31:59;100293.81;;;2.89;100.00
17525;BME280;40431;52.198;9.902;2023-01-30T02:34:41;100302.75;;;2.88;100.00
17525;BME280;40431;52.198;9.902;2023-01-30T02:37:16;100291.94;;;2.91;100.00
17525;BME280;40431;52.198;9.902;2023-01-30T02:39:59;100268.56;;;2.96;100.00
17525;BME280;40431;52.198;9.902;2023-01-30T02:42:33;100271.09;;;3.00;100.00
17525;BME280;40431;52.198;9.902;2023-01-30T02:45:08;100254.84;;;3.05;100.00
17525;BME280;40431;52.198;9.902;2023-01-30T02:47:42;100264.53;;;3.09;100.00
17525;BME280;40431;52.198;9.902;2023-01-30T02:50:14;100251.97;;;3.11;100.00
17525;BME280;40431;52.198;9.902;2023-01-30T02:52:42;100242.97;;;3.12;100.00
17525;BME280;40431;52.198;9.902;2023-01-30T02:55:15;100235.91;;;3.11;100.00
17525;BME280;40431;52.198;9.902;2023-01-30T02:57:42;100234.00;;;3.13;100.00
17525;BME280;40431;52.198;9.902;2023-01-30T03:00:10;100237.41;;;3.18;100.00
17525;BME280;40431;52.198;9.902;2023-01-30T03:02:50;100213.22;;;3.20;100.00
17525;BME280;40431;52.198;9.902;2023-01-30T03:05:42;100194.41;;;3.22;100.00
17525;BME280;40431;52.198;9.902;2023-01-30T03:08:19;100206.03;;;3.22;100.00
17525;BME280;40431;52.198;9.902;2023-01-30T03:10:52;100210.50;;;3.22;100.00
17525;BME280;40431;52.198;9.902;2023-01-30T03:13:27;100206.03;;;3.22;100.00
17525;BME280;40431;52.198;9.902;2023-01-30T03:15:59;100211.31;;;3.24;100.00
17525;BME280;40431;52.198;9.902;2023-01-30T03:18:29;100223.81;;;3.25;100.00
17525;BME280;40431;52.198;9.902;2023-01-30T03:21:02;100213.72;;;3.31;100.00
17525;BME280;40431;52.198;9.902;2023-01-30T03:23:29;100204.94;;;3.28;100.00
17525;BME280;40431;52.198;9.902;2023-01-30T03:25:55;100201.31;;;3.29;100.00
17525;BME280;40431;52.198;9.902;2023-01-30T03:28:22;100201.19;;;3.32;100.00
17525;BME280;40431;52.198;9.902;2023-01-30T03:30:48;100206.56;;;3.32;100.00
17525;BME280;40431;52.198;9.902;2023-01-30T03:33:15;100197.47;;;3.36;100.00
17525;BME280;40431;52.198;9.902;2023-01-30T03:35:43;100186.41;;;3.45;100.00
17525;BME280;40431;52.198;9.902;2023-01-30T03:38:09;100181.94;;;3.46;100.00
17525;BME280;40431;52.198;9.902;2023-01-30T03:40:36;100180.97;;;3.48;100.00
17525;BME280;40431;52.198;9.902;2023-01-30T03:43:02;100168.28;;;3.52;100.00
17525;BME280;40431;52.198;9.902;2023-01-30T03:45:29;100155.78;;;3.53;100.00
17525;BME280;40431;52.198;9.902;2023-01-30T03:47:55;100162.91;;;3.52;100.00
17525;BME280;40431;52.198;9.902;2023-01-30T03:50:21;100138.06;;;3.48;100.00
17525;BME280;40431;52.198;9.902;2023-01-30T03:52:49;100137.25;;;3.46;100.00
17525;BME280;40431;52.198;9.902;2023-01-30T03:55:16;100147.97;;;3.46;100.00
17525;BME280;40431;52.198;9.902;2023-01-30T03:57:42;100163.88;;;3.51;100.00
17525;BME280;40431;52.198;9.902;2023-01-30T04:00:09;100145.16;;;3.49;100.00
17525;BME280;40431;52.198;9.902;2023-01-30T04:02:36;100143.44;;;3.48;100.00
17525;BME280;40431;52.198;9.902;2023-01-30T04:05:03;100141.59;;;3.49;100.00
17525;BME280;40431;52.198;9.902;2023-01-30T04:07:29;100126.81;;;3.39;100.00
17525;BME280;40431;52.198;9.902;2023-01-30T04:09:57;100128.19;;;3.49;100.00
17525;BME280;40431;52.198;9.902;2023-01-30T04:12:23;100131.72;;;3.51;100.00
17525;BME280;40431;52.198;9.902;2023-01-30T04:14:50;100134.13;;;3.57;100.00
17525;BME280;40431;52.198;9.902;2023-01-30T04:17:16;100136.94;;;3.54;100.00
17525;BME280;40431;52.198;9.902;2023-01-30T04:19:43;100117.91;;;3.60;100.00
17525;BME280;40431;52.198;9.902;2023-01-30T04:22:09;100114.25;;;3.63;100.00
17525;BME280;40431;52.198;9.902;2023-01-30T04:24:35;100116.06;;;3.62;100.00
17525;BME280;40431;52.198;9.902;2023-01-30T04:27:03;100116.13;;;3.61;100.00
17525;BME280;40431;52.198;9.902;2023-01-30T04:29:29;100110.78;;;3.61;100.00
17525;BME280;40431;52.198;9.902;2023-01-30T04:31:56;100116.13;;;3.61;100.00
17525;BME280;40431;52.198;9.902;2023-01-30T04:34:22;100101.91;;;3.59;100.00
17525;BME280;40431;52.198;9.902;2023-01-30T04:36:48;100110.78;;;3.61;100.00
17525;BME280;40431;52.198;9.902;2023-01-30T04:39:15;100096.44;;;3.62;100.00
17525;BME280;40431;52.198;9.902;2023-01-30T04:41:41;100102.84;;;3.58;100.00
17525;BME280;40431;52.198;9.902;2023-01-30T04:44:09;100103.41;;;3.66;100.00
17525;BME280;40431;52.198;9.902;2023-01-30T04:46:35;100100.59;;;3.69;100.00
17525;BME280;40431;52.198;9.902;2023-01-30T04:49:02;100104.22;;;3.68;100.00
17525;BME280;40431;52.198;9.902;2023-01-30T04:51:28;100100.69;;;3.67;100.00
17525;BME280;40431;52.198;9.902;2023-01-30T04:53:54;100091.56;;;3.72;100.00
17525;BME280;40431;52.198;9.902;2023-01-30T04:56:21;100087.88;;;3.74;100.00
17525;BME280;40431;52.198;9.902;2023-01-30T04:58:47;100083.34;;;3.76;100.00
17525;BME280;40431;52.198;9.902;2023-01-30T05:01:20;100071.59;;;3.79;100.00
17525;BME280;40431;52.198;9.902;2023-01-30T05:03:49;100070.66;;;3.80;100.00
17525;BME280;40431;52.198;9.902;2023-01-30T05:06:15;100068.81;;;3.82;100.00
17525;BME280;40431;52.198;9.902;2023-01-30T05:08:42;100066.19;;;3.80;100.00
17525;BME280;40431;52.198;9.902;2023-01-30T05:11:08;100068.75;;;3.83;100.00
17525;BME280;40431;52.198;9.902;2023-01-30T05:13:34;100071.38;;;3.85;100.00
17525;BME280;40431;52.198;9.902;2023-01-30T05:16:01;100055.94;;;3.90;100.00
17525;BME280;40431;52.198;9.902;2023-01-30T05:18:29;100054.41;;;3.84;100.00
17525;BME280;40431;52.198;9.902;2023-01-30T05:21:02;100041.94;;;3.83;100.00
17525;BME280;40431;52.198;9.902;2023-01-30T05:23:29;100054.28;;;3.88;100.00
17525;BME280;40431;52.198;9.902;2023-01-30T05:25:55;100050.72;;;3.87;100.00
17525;BME280;40431;52.198;9.902;2023-01-30T05:28:21;100054.13;;;3.91;100.00
17525;BME280;40431;52.198;9.902;2023-01-30T05:30:48;100043.41;;;3.91;100.00
17525;BME280;40431;52.198;9.902;2023-01-30T05:33:14;100056.63;;;3.95;100.00
17525;BME280;40431;52.198;9.902;2023-01-30T05:35:46;100036.19;;;3.93;100.00
17525;BME280;40431;52.198;9.902;2023-01-30T05:38:13;100063.00;;;3.93;100.00
17525;BME280;40431;52.198;9.902;2023-01-30T05:40:39;100060.06;;;3.99;100.00
17525;BME280;40431;52.198;9.902;2023-01-30T05:43:06;100054.66;;;4.00;100.00
17525;BME280;40431;52.198;9.902;2023-01-30T05:45:33;100057.13;;;4.05;100.00
17525;BME280;40431;52.198;9.902;2023-01-30T05:48:00;100065.09;;;4.07;100.00
17525;BME280;40431;52.198;9.902;2023-01-30T05:50:26;100071.22;;;4.10;100.00
17525;BME280;40431;52.198;9.902;2023-01-30T05:52:54;100072.22;;;4.08;100.00
17525;BME280;40431;52.198;9.902;2023-01-30T05:55:20;100078.56;;;4.05;100.00
17525;BME280;40431;52.198;9.902;2023-01-30T05:57:47;100078.34;;;4.11;100.00
17525;BME280;40431;52.198;9.902;2023-01-30T06:00:14;100087.31;;;4.10;100.00
17525;BME280;40431;52.198;9.902;2023-01-30T06:02:41;100071.22;;;4.10;100.00
17525;BME280;40431;52.198;9.902;2023-01-30T06:05:07;100081.94;;;4.10;100.00
17525;BME280;40431;52.198;9.902;2023-01-30T06:07:34;100080.09;;;4.12;100.00
17525;BME280;40431;52.198;9.902;2023-01-30T06:10:02;100081.09;;;4.10;100.00
17525;BME280;40431;52.198;9.902;2023-01-30T06:12:29;100090.00;;;4.10;100.00
17525;BME280;40431;52.198;9.902;2023-01-30T06:14:55;100094.69;;;4.05;100.00
17525;BME280;40431;52.198;9.902;2023-01-30T06:17:22;100086.69;;;4.04;100.00
17525;BME280;40431;52.198;9.902;2023-01-30T06:19:48;100070.66;;;4.02;100.00
17525;BME280;40431;52.198;9.902;2023-01-30T06:22:14;100075.97;;;4.04;100.00
17525;BME280;40431;52.198;9.902;2023-01-30T06:24:41;100068.75;;;4.06;100.00
17525;BME280;40431;52.198;9.902;2023-01-30T06:27:08;100081.16;;;4.08;100.00
17525;BME280;40431;52.198;9.902;2023-01-30T06:29:35;100073.09;;;4.08;100.00
17525;BME280;40431;52.198;9.902;2023-01-30T06:32:01;100048.97;;;4.08;100.00
17525;BME280;40431;52.198;9.902;2023-01-30T06:34:28;100057.81;;;4.10;100.00
17525;BME280;40431;52.198;9.902;2023-01-30T06:36:54;100060.47;;;4.10;100.00
17525;BME280;40431;52.198;9.902;2023-01-30T06:39:21;100053.25;;;4.12;100.00
17525;BME280;40431;52.198;9.902;2023-01-30T06:41:47;100074.56;;;4.15;100.00
17525;BME280;40431;52.198;9.902;2023-01-30T06:44:15;100058.09;;;4.25;100.00
17525;BME280;40431;52.198;9.902;2023-01-30T06:46:41;100062.38;;;4.29;100.00
17525;BME280;40431;52.198;9.902;2023-01-30T06:49:08;100063.91;;;4.34;100.00
17525;BME280;40431;52.198;9.902;2023-01-30T06:51:35;100072.78;;;4.37;100.00
17525;BME280;40431;52.198;9.902;2023-01-30T06:54:01;100089.59;;;4.42;100.00
17525;BME280;40431;52.198;9.902;2023-01-30T06:56:27;100086.97;;;4.40;100.00
17525;BME280;40431;52.198;9.902;2023-01-30T06:58:54;100106.53;;;4.42;100.00
17525;BME280;40431;52.198;9.902;2023-01-30T07:01:22;100091.34;;;4.43;100.00
17525;BME280;40431;52.198;9.902;2023-01-30T07:03:48;100092.25;;;4.42;100.00
17525;BME280;40431;52.198;9.902;2023-01-30T07:06:15;100091.38;;;4.41;100.00
17525;BME280;40431;52.198;9.902;2023-01-30T07:08:41;100097.63;;;4.42;100.00
17525;BME280;40431;52.198;9.902;2023-01-30T07:11:08;100086.16;;;4.38;100.00
17525;BME280;40431;52.198;9.902;2023-01-30T07:13:34;100086.00;;;4.41;100.00
17525;BME280;40431;52.198;9.902;2023-01-30T07:16:01;100079.69;;;4.42;100.00
17525;BME280;40431;52.198;9.902;2023-01-30T07:18:29;100086.81;;;4.43;100.00
17525;BME280;40431;52.198;9.902;2023-01-30T07:20:55;100091.13;;;4.47;100.00
17525;BME280;40431;52.198;9.902;2023-01-30T07:23:21;100086.69;;;4.46;100.00
17525;BME280;40431;52.198;9.902;2023-01-30T07:25:48;100088.25;;;4.52;100.00
17525;BME280;40431;52.198;9.902;2023-01-30T07:28:14;100093.47;;;4.55;100.00
17525;BME280;40431;52.198;9.902;2023-01-30T07:30:41;100099.72;;;4.56;100.00
17525;BME280;40431;52.198;9.902;2023-01-30T07:33:07;100090.72;;;4.57;100.00
17525;BME280;40431;52.198;9.902;2023-01-30T07:35:36;100090.56;;;4.60;100.00
17525;BME280;40431;52.198;9.902;2023-01-30T07:38:03;100090.66;;;4.58;100.00
17525;BME280;40431;52.198;9.902;2023-01-30T07:40:30;100084.41;;;4.58;100.00
17525;BME280;40431;52.198;9.902;2023-01-30T07:42:58;100093.53;;;4.54;100.00
17525;BME280;40431;52.198;9.902;2023-01-30T07:45:28;100090.88;;;4.54;100.00
17525;BME280;40431;52.198;9.902;2023-01-30T07:47:55;100085.59;;;4.50;100.00
17525;BME280;40431;52.198;9.902;2023-01-30T07:50:21;100091.78;;;4.53;100.00
17525;BME280;40431;52.198;9.902;2023-01-30T07:52:49;100098.09;;;4.51;100.00
17525;BME280;40431;52.198;9.902;2023-01-30T07:55:15;100093.63;;;4.52;100.00
17525;BME280;40431;52.198;9.902;2023-01-30T07:57:42;100081.31;;;4.46;100.00
17525;BME280;40431;52.198;9.902;2023-01-30T08:00:09;100082.88;;;4.52;100.00
17525;BME280;40431;52.198;9.902;2023-01-30T08:02:36;100070.31;;;4.53;100.00
17525;BME280;40431;52.198;9.902;2023-01-30T08:05:03;100081.72;;;4.58;100.00
17525;BME280;40431;52.198;9.902;2023-01-30T08:07:29;100084.19;;;4.62;100.00
17525;BME280;40431;52.198;9.902;2023-01-30T08:09:57;100074.34;;;4.63;100.00
17525;BME280;40431;52.198;9.902;2023-01-30T08:12:23;100076.03;;;4.65;100.00
17525;BME280;40431;52.198;9.902;2023-01-30T08:14:50;100084.88;;;4.67;100.00
17525;BME280;40431;52.198;9.902;2023-01-30T08:17:16;100077.72;;;4.68;100.00
17525;BME280;40431;52.198;9.902;2023-01-30T08:19:43;100076.63;;;4.72;100.00
17525;BME280;40431;52.198;9.902;2023-01-30T08:22:09;100073.78;;;4.75;100.00
17525;BME280;40431;52.198;9.902;2023-01-30T08:24:35;100077.94;;;4.82;100.00
17525;BME280;40431;52.198;9.902;2023-01-30T08:27:03;100089.34;;;4.88;100.00
17525;BME280;40431;52.198;9.902;2023-01-30T08:29:30;100092.97;;;4.87;100.00
17525;BME280;40431;52.198;9.902;2023-01-30T08:31:56;100095.47;;;4.91;100.00
17525;BME280;40431;52.198;9.902;2023-01-30T08:34:22;100102.59;;;4.92;100.00
17525;BME280;40431;52.198;9.902;2023-01-30T08:36:49;100107.81;;;4.95;100.00
17525;BME280;40431;52.198;9.902;2023-01-30T08:39:15;100115.03;;;4.95;100.00
17525;BME280;40431;52.198;9.902;2023-01-30T08:41:42;100112.34;;;4.95;100.00
17525;BME280;40431;52.198;9.902;2023-01-30T08:44:10;100106.22;;;4.91;100.00
17525;BME280;40431;52.198;9.902;2023-01-30T08:46:36;100108.81;;;4.93;100.00
17525;BME280;40431;52.198;9.902;2023-01-30T08:49:04;100112.44;;;4.92;100.00
17525;BME280;40431;52.198;9.902;2023-01-30T08:51:30;100092.84;;;4.90;100.00
17525;BME280;40431;52.198;9.902;2023-01-30T08:53:57;100115.94;;;4.94;100.00
17525;BME280;40431;52.198;9.902;2023-01-30T08:56:23;100110.44;;;4.97;100.00
17525;BME280;40431;52.198;9.902;2023-01-30T08:58:50;100112.03;;;5.01;100.00
17525;BME280;40431;52.198;9.902;2023-01-30T09:01:17;100110.16;;;5.03;100.00
17525;BME280;40431;52.198;9.902;2023-01-30T09:03:44;100120.91;;;5.03;100.00
17525;BME280;40431;52.198;9.902;2023-01-30T09:06:10;100127.03;;;5.07;100.00
17525;BME280;40431;52.198;9.902;2023-01-30T09:08:36;100121.69;;;5.05;100.00
17525;BME280;40431;52.198;9.902;2023-01-30T09:11:04;100117.97;;;5.09;100.00
17525;BME280;40431;52.198;9.902;2023-01-30T09:13:31;100120.66;;;5.09;100.00
17525;BME280;40431;52.198;9.902;2023-01-30T09:15:57;100135.03;;;5.08;100.00
17525;BME280;40431;52.198;9.902;2023-01-30T09:18:25;100138.50;;;5.10;100.00
17525;BME280;40431;52.198;9.902;2023-01-30T09:20:52;100112.22;;;5.17;100.00
17525;BME280;40431;52.198;9.902;2023-01-30T09:23:18;100124.78;;;5.16;100.00
17525;BME280;40431;52.198;9.902;2023-01-30T09:25:45;100117.59;;;5.17;100.00
17525;BME280;40431;52.198;9.902;2023-01-30T09:28:11;100113.09;;;5.17;100.00
17525;BME280;40431;52.198;9.902;2023-01-30T09:30:38;100110.25;;;5.21;100.00
17525;BME280;40431;52.198;9.902;2023-01-30T09:33:04;100109.31;;;5.22;100.00
17525;BME280;40431;52.198;9.902;2023-01-30T09:35:32;100118.31;;;5.21;100.00
17525;BME280;40431;52.198;9.902;2023-01-30T09:37:58;100116.47;;;5.23;100.00
17525;BME280;40431;52.198;9.902;2023-01-30T09:40:27;100120.94;;;5.22;100.00
17525;BME280;40431;52.198;9.902;2023-01-30T09:43:21;100116.31;;;5.26;100.00
17525;BME280;40431;52.198;9.902;2023-01-30T09:45:59;100118.84;;;5.29;100.00
17525;BME280;40431;52.198;9.902;2023-01-30T09:48:33;100111.59;;;5.31;100.00
17525;BME280;40431;52.198;9.902;2023-01-30T09:51:35;100122.19;;;5.34;100.00
17525;BME280;40431;52.198;9.902;2023-01-30T09:54:16;100128.31;;;5.38;100.00
17525;BME280;40431;52.198;9.902;2023-01-30T09:56:54;100108.47;;;5.40;100.00
17525;BME280;40431;52.198;9.902;2023-01-30T09:59:24;100109.34;;;5.41;100.00
17525;BME280;40431;52.198;9.902;2023-01-30T10:01:59;100120.97;;;5.41;100.00
17525;BME280;40431;52.198;9.902;2023-01-30T10:04:34;100115.59;;;5.41;100.00
17525;BME280;40431;52.198;9.902;2023-01-30T10:07:09;100103.97;;;5.41;100.00
17525;BME280;40431;52.198;9.902;2023-01-30T10:09:47;100111.16;;;5.40;100.00
17525;BME280;40431;52.198;9.902;2023-01-30T10:12:26;100107.66;;;5.38;100.00
17525;BME280;40431;52.198;9.902;2023-01-30T10:15:11;100117.47;;;5.39;100.00
17525;BME280;40431;52.198;9.902;2023-01-30T10:17:47;100099.59;;;5.38;100.00
17525;BME280;40431;52.198;9.902;2023-01-30T10:20:28;100111.16;;;5.40;100.00
17525;BME280;40431;52.198;9.902;2023-01-30T10:23:15;100104.19;;;5.36;100.00
17525;BME280;40431;52.198;9.902;2023-01-30T10:25:47;100101.34;;;5.20;100.00
17525;BME280;40431;52.198;9.902;2023-01-30T10:28:20;100097.91;;;5.16;100.00
17525;BME280;40431;52.198;9.902;2023-01-30T10:30:51;100109.47;;;5.18;100.00
17525;BME280;40431;52.198;9.902;2023-01-30T10:33:23;100113.81;;;5.21;100.00
17525;BME280;40431;52.198;9.902;2023-01-30T10:36:03;100113.34;;;5.32;100.00
17525;BME280;40431;52.198;9.902;2023-01-30T10:38:34;100112.25;;;5.36;100.00
17525;BME280;40431;52.198;9.902;2023-01-30T10:41:09;100102.22;;;5.40;100.00
17525;BME280;40431;52.198;9.902;2023-01-30T10:43:40;100106.72;;;5.39;100.00
17525;BME280;40431;52.198;9.902;2023-01-30T10:46:20;100083.03;;;5.47;98.26
17525;BME280;40431;52.198;9.902;2023-01-30T10:48:54;100081.94;;;5.51;97.60
17525;BME280;40431;52.198;9.902;2023-01-30T10:51:31;100081.81;;;5.55;98.92
17525;BME280;40431;52.198;9.902;2023-01-30T10:54:03;100083.47;;;5.57;98.95
17525;BME280;40431;52.198;9.902;2023-01-30T10:56:39;100064.69;;;5.56;97.88
17525;BME280;40431;52.198;9.902;2023-01-30T10:59:20;100062.81;;;5.58;98.63
17525;BME280;40431;52.198;9.902;2023-01-30T11:01:55;100067.25;;;5.59;99.68
17525;BME280;40431;52.198;9.902;2023-01-30T11:04:29;100082.31;;;5.44;100.00
17525;BME280;40431;52.198;9.902;2023-01-30T11:06:57;100078.25;;;5.35;100.00
17525;BME280;40431;52.198;9.902;2023-01-30T11:09:38;100078.09;;;5.19;100.00
17525;BME280;40431;52.198;9.902;2023-01-30T11:12:05;100087.44;;;5.10;100.00
17525;BME280;40431;52.198;9.902;2023-01-30T11:14:53;100078.34;;;5.13;100.00
17525;BME280;40431;52.198;9.902;2023-01-30T11:17:27;100084.63;;;5.13;100.00
17525;BME280;40431;52.198;9.902;2023-01-30T11:19:54;100088.03;;;5.17;100.00
17525;BME280;40431;52.198;9.902;2023-01-30T11:22:23;100091.28;;;5.24;100.00
17525;BME280;40431;52.198;9.902;2023-01-30T11:24:59;100082.19;;;5.28;100.00
17525;BME280;40431;52.198;9.902;2023-01-30T11:27:28;100077.38;;;5.34;100.00
17525;BME280;40431;52.198;9.902;2023-01-30T11:30:03;100073.88;;;5.51;100.00
17525;BME280;40431;52.198;9.902;2023-01-30T11:32:30;100079.34;;;5.69;100.00
17525;BME280;40431;52.198;9.902;2023-01-30T11:35:19;100073.34;;;5.81;100.00
17525;BME280;40431;52.198;9.902;2023-01-30T11:37:46;100072.44;;;5.81;100.00
17525;BME280;40431;52.198;9.902;2023-01-30T11:40:22;100056.56;;;5.76;100.00
17525;BME280;40431;52.198;9.902;2023-01-30T11:42:50;100068.50;;;5.71;100.00
17525;BME280;40431;52.198;9.902;2023-01-30T11:45:24;100069.50;;;5.68;100.00
17525;BME280;40431;52.198;9.902;2023-01-30T11:47:53;100044.56;;;5.64;100.00
17525;BME280;40431;52.198;9.902;2023-01-30T11:50:22;100049.09;;;5.64;100.00
17525;BME280;40431;52.198;9.902;2023-01-30T11:52:51;100052.44;;;5.69;100.00
17525;BME280;40431;52.198;9.902;2023-01-30T11:55:20;100045.94;;;5.73;100.00
17525;BME280;40431;52.198;9.902;2023-01-30T11:57:49;100031.47;;;5.76;100.00
17525;BME280;40431;52.198;9.902;2023-01-30T12:00:19;100027.72;;;5.78;100.00
17525;BME280;40431;52.198;9.902;2023-01-30T12:02:49;100036.44;;;5.83;100.00
17525;BME280;40431;52.198;9.902;2023-01-30T12:05:22;100025.63;;;5.85;100.00
17525;BME280;40431;52.198;9.902;2023-01-30T12:07:50;100024.53;;;5.89;100.00
17525;BME280;40431;52.198;9.902;2023-01-30T12:10:27;100017.25;;;5.91;100.00
17525;BME280;40431;52.198;9.902;2023-01-30T12:12:55;100020.31;;;5.83;100.00
17525;BME280;40431;52.198;9.902;2023-01-30T12:15:25;100034.22;;;5.74;100.00
17525;BME280;40431;52.198;9.902;2023-01-30T12:17:58;100047.81;;;5.71;100.00
17525;BME280;40431;52.198;9.902;2023-01-30T12:20:32;100030.25;;;5.64;100.00
17525;BME280;40431;52.198;9.902;2023-01-30T12:23:10;100035.78;;;5.61;100.00
17525;BME280;40431;52.198;9.902;2023-01-30T12:25:43;100025.53;;;5.50;100.00
17525;BME280;40431;52.198;9.902;2023-01-30T12:28:21;100017.06;;;5.40;100.00
17525;BME280;40431;52.198;9.902;2023-01-30T12:30:53;100013.91;;;5.30;100.00
17525;BME280;40431;52.198;9.902;2023-01-30T12:33:25;100022.28;;;5.24;100.00
17525;BME280;40431;52.198;9.902;2023-01-30T12:36:01;100034.34;;;5.15;100.00
17525;BME280;40431;52.198;9.902;2023-01-30T12:38:51;100032.59;;;5.14;100.00
17525;BME280;40431;52.198;9.902;2023-01-30T12:41:33;100067.16;;;5.03;100.00
17525;BME280;40431;52.198;9.902;2023-01-30T12:44:16;100082.94;;;4.71;100.00
17525;BME280;40431;52.198;9.902;2023-01-30T12:46:59;100060.59;;;4.50;100.00
17525;BME280;40431;52.198;9.902;2023-01-30T12:49:43;100074.75;;;4.54;100.00
17525;BME280;40431;52.198;9.902;2023-01-30T12:52:46;100068.38;;;4.56;100.00
17525;BME280;40431;52.198;9.902;2023-01-30T12:55:30;100074.88;;;4.50;100.00
17525;BME280;40431;52.198;9.902;2023-01-30T12:58:05;100081.13;;;4.51;100.00
17525;BME280;40431;52.198;9.902;2023-01-30T13:00:46;100082.00;;;4.31;100.00
17525;BME280;40431;52.198;9.902;2023-01-30T13:03:33;100090.81;;;4.12;100.00
17525;BME280;40431;52.198;9.902;2023-01-30T13:06:09;100084.31;;;3.96;100.00